Time;durP1;ratioP1;P1;durP2;ratioP2;P2;SDS_P1;SDS_P2;PMS_P1;PMS_P2;Temp;Humidity;BMP_temperature;BMP_pressure;BME280_temperature;BME280_humidity;BME280_pressure;Samples;Min_cycle;Max_cycle;Signal;HPM_P1;HPM_P2
2022/11/16 00:01:24;;;;;;;2.15;0.40;;;20.10;99.90;;;;;;5028970;28;20194;-79
2022/11/16 00:03:57;;;;;;;1.00;0.40;;;20.20;99.90;;;;;;5032079;28;20218;-77
2022/11/16 00:06:28;;;;;;;0.90;0.40;;;20.20;99.90;;;;;;5033456;28;20269;-79
2022/11/16 00:11:47;;;;;;;1.60;0.40;;;20.40;99.90;;;;;;5033175;28;20661;-79
2022/11/16 00:14:21;;;;;;;0.50;0.40;;;20.30;99.90;;;;;;5031333;28;20226;-78
2022/11/16 00:16:54;;;;;;;4.32;0.60;;;20.40;99.90;;;;;;5026372;28;20277;-79
2022/11/16 00:19:26;;;;;;;1.38;0.40;;;20.60;99.90;;;;;;5026669;28;20204;-79
2022/11/16 00:21:57;;;;;;;0.70;0.40;;;20.80;99.90;;;;;;5031795;28;20523;-79
2022/11/16 00:24:28;;;;;;;1.90;0.52;;;21.00;99.90;;;;;;5032264;28;20225;-79
2022/11/16 00:26:59;;;;;;;3.58;0.50;;;20.50;99.90;;;;;;5030493;28;20194;-79
2022/11/16 00:29:32;;;;;;;1.85;0.38;;;20.60;99.90;;;;;;5026267;28;20198;-79
2022/11/16 00:32:03;;;;;;;0.70;0.38;;;20.30;99.90;;;;;;5026721;28;20198;-80
2022/11/16 00:34:38;;;;;;;0.98;0.50;;;20.30;99.90;;;;;;5034129;28;20264;-80
2022/11/16 00:37:09;;;;;;;1.70;0.47;;;20.60;99.90;;;;;;5030775;28;20237;-80
2022/11/16 00:39:40;;;;;;;0.65;0.30;;;20.90;99.90;;;;;;5032378;28;20198;-79
2022/11/16 00:42:11;;;;;;;1.23;0.40;;;21.20;99.90;;;;;;5034377;28;20198;-80
2022/11/16 00:44:44;;;;;;;1.88;0.40;;;21.20;99.90;;;;;;5028039;28;20220;-79
2022/11/16 00:47:15;;;;;;;1.25;0.28;;;21.00;99.90;;;;;;5035589;28;20282;-79
2022/11/16 00:49:46;;;;;;;1.40;0.30;;;20.40;99.90;;;;;;5031318;28;20618;-82
2022/11/16 00:52:17;;;;;;;5.72;0.40;;;19.80;99.90;;;;;;5031152;28;20640;-79
2022/11/16 00:54:48;;;;;;;0.55;0.35;;;19.40;99.90;;;;;;5024416;28;20210;-81
2022/11/16 00:57:19;;;;;;;1.02;0.45;;;19.70;99.90;;;;;;5033667;28;20218;-79
2022/11/16 00:59:52;;;;;;;0.80;0.40;;;20.30;99.90;;;;;;5032773;28;20201;-79
2022/11/16 01:02:23;;;;;;;1.60;0.52;;;20.50;99.90;;;;;;5033284;28;20310;-82
2022/11/16 01:04:54;;;;;;;2.97;0.50;;;20.20;99.90;;;;;;5032672;28;20249;-79
2022/11/16 01:07:25;;;;;;;1.40;0.40;;;19.90;99.90;;;;;;5034212;28;20202;-80
2022/11/16 01:09:56;;;;;;;0.30;0.30;;;19.80;99.90;;;;;;5030834;28;20202;-78
2022/11/16 01:12:25;;;;;;;1.05;0.40;;;19.80;99.90;;;;;;5032271;28;20295;-82
2022/11/16 01:14:59;;;;;;;1.15;0.40;;;19.90;99.90;;;;;;5030503;28;20230;-78
2022/11/16 01:17:30;;;;;;;0.90;0.30;;;20.10;99.90;;;;;;5028234;28;20198;-85
2022/11/16 01:20:00;;;;;;;0.88;0.30;;;20.10;99.90;;;;;;5028435;28;20198;-79
2022/11/16 01:22:31;;;;;;;1.05;0.30;;;20.20;99.90;;;;;;5030856;28;20344;-78
2022/11/16 01:25:05;;;;;;;0.70;0.30;;;20.00;99.90;;;;;;5031891;28;20222;-82
2022/11/16 01:27:36;;;;;;;1.05;0.40;;;20.00;99.90;;;;;;5032567;28;20202;-82
2022/11/16 01:30:11;;;;;;;0.80;0.60;;;19.90;99.90;;;;;;5033313;28;20204;-81
2022/11/16 01:32:42;;;;;;;0.45;0.30;;;20.00;99.90;;;;;;5026273;28;20198;-79
2022/11/16 01:35:19;;;;;;;3.33;0.80;;;20.10;99.90;;;;;;5032711;28;20206;-81
2022/11/16 01:37:50;;;;;;;0.77;0.40;;;20.20;99.90;;;;;;5031056;28;20787;-81
2022/11/16 01:40:21;;;;;;;0.43;0.30;;;20.20;99.90;;;;;;5033143;28;20205;-80
2022/11/16 01:42:52;;;;;;;1.02;0.40;;;20.00;99.90;;;;;;5033142;28;20198;-82
2022/11/16 01:45:36;;;;;;;0.85;0.43;;;19.70;99.90;;;;;;5030855;28;20222;-82
2022/11/16 01:48:07;;;;;;;0.90;0.30;;;19.70;99.90;;;;;;5033750;28;20216;-78
2022/11/16 01:50:39;;;;;;;1.13;0.40;;;19.70;99.90;;;;;;5033090;28;20196;-84
2022/11/16 01:53:12;;;;;;;2.13;0.30;;;19.60;99.90;;;;;;5033026;28;20194;-79
2022/11/16 01:55:45;;;;;;;1.30;0.30;;;19.80;99.90;;;;;;5029848;28;20226;-79
2022/11/16 01:58:20;;;;;;;1.50;0.30;;;20.20;99.90;;;;;;5030598;28;20198;-80
2022/11/16 02:00:53;;;;;;;0.60;0.50;;;20.30;99.90;;;;;;5030381;28;20230;-80
2022/11/16 02:03:24;;;;;;;0.75;0.30;;;20.30;99.90;;;;;;5029984;28;20202;-82
2022/11/16 02:06:17;;;;;;;0.57;0.30;;;20.40;99.90;;;;;;5031335;28;20245;-81
2022/11/16 02:12:05;;;;;;;0.30;0.20;;;20.60;96.80;;;;;;5029584;28;20213;-87
2022/11/16 02:14:50;;;;;;;2.72;0.43;;;20.40;97.50;;;;;;5031467;28;20294;-81
2022/11/16 02:17:33;;;;;;;0.55;0.40;;;20.30;98.60;;;;;;5022726;28;20286;-80
2022/11/16 02:20:34;;;;;;;0.43;0.40;;;20.30;99.80;;;;;;5029190;28;20194;-79
2022/11/16 02:23:35;;;;;;;3.25;0.50;;;20.30;99.90;;;;;;5028372;28;20202;-81
2022/11/16 02:26:19;;;;;;;0.52;0.30;;;20.30;99.90;;;;;;4997521;28;20226;-81
2022/11/16 02:29:03;;;;;;;2.00;0.47;;;20.40;99.90;;;;;;5034302;28;20250;-78
2022/11/16 02:31:38;;;;;;;3.05;0.60;;;20.60;99.90;;;;;;5030120;28;20297;-80
2022/11/16 02:34:12;;;;;;;2.67;0.70;;;20.70;99.90;;;;;;5027114;28;20200;-80
2022/11/16 02:36:46;;;;;;;2.95;0.68;;;20.50;99.90;;;;;;5029898;28;20225;-77
2022/11/16 02:39:21;;;;;;;2.13;0.50;;;20.20;99.90;;;;;;5030794;28;20207;-81
2022/11/16 02:41:54;;;;;;;3.10;0.65;;;19.80;99.90;;;;;;5026988;28;20202;-79
2022/11/16 02:44:30;;;;;;;3.42;0.85;;;19.40;99.90;;;;;;5026015;28;20305;-78
2022/11/16 02:47:04;;;;;;;1.83;0.63;;;19.00;99.90;;;;;;5031389;28;20193;-81
2022/11/16 02:49:38;;;;;;;4.30;0.70;;;18.80;99.90;;;;;;5032821;28;20217;-79
2022/11/16 02:52:11;;;;;;;1.58;0.55;;;18.60;99.90;;;;;;5034068;28;20186;-75
2022/11/16 02:54:42;;;;;;;5.35;0.90;;;18.40;99.90;;;;;;5034132;28;20281;-76
2022/11/16 02:57:40;;;;;;;2.60;0.68;;;18.20;99.90;;;;;;5025767;28;20218;-78
2022/11/16 03:00:20;;;;;;;4.53;0.68;;;18.10;99.90;;;;;;5026416;28;20956;-81
2022/11/16 03:03:13;;;;;;;2.05;0.40;;;17.90;99.90;;;;;;5020548;28;20202;-83
2022/11/16 03:05:49;;;;;;;0.68;0.40;;;17.10;99.90;;;;;;5023603;28;20231;-74
2022/11/16 03:08:25;;;;;;;2.22;0.55;;;16.30;99.90;;;;;;5033019;28;20194;-77
2022/11/16 03:13:48;;;;;;;2.15;0.68;;;15.20;99.90;;;;;;5028437;28;20680;-79
2022/11/16 03:16:26;;;;;;;1.77;0.65;;;14.90;99.90;;;;;;5028174;28;20285;-80
2022/11/16 03:19:01;;;;;;;2.42;0.70;;;14.70;99.90;;;;;;5030073;28;20723;-78
2022/11/16 03:21:37;;;;;;;1.23;0.80;;;14.70;99.90;;;;;;5022392;28;20247;-78
2022/11/16 03:24:08;;;;;;;1.55;0.50;;;14.80;99.90;;;;;;5032107;28;20699;-77
2022/11/16 03:26:47;;;;;;;0.52;0.50;;;14.90;99.90;;;;;;5028948;28;20300;-78
2022/11/16 03:29:28;;;;;;;0.35;0.35;;;15.00;99.90;;;;;;5025500;28;20577;-79
2022/11/16 03:32:08;;;;;;;0.35;0.35;;;15.20;99.90;;;;;;5032682;28;20209;-79
2022/11/16 03:34:43;;;;;;;0.20;0.20;;;15.60;99.90;;;;;;5029879;28;20684;-78
2022/11/16 03:37:16;;;;;;;0.38;0.30;;;15.80;99.90;;;;;;5029064;28;20313;-78
2022/11/16 03:39:47;;;;;;;0.25;0.25;;;15.90;99.90;;;;;;5027178;28;20198;-78
2022/11/16 03:42:22;;;;;;;0.98;0.20;;;16.00;99.90;;;;;;5031708;28;20194;-77
2022/11/16 03:44:53;;;;;;;0.82;0.30;;;16.30;99.90;;;;;;5029473;28;20217;-81
2022/11/16 03:47:26;;;;;;;0.63;0.35;;;16.60;99.90;;;;;;5028609;28;20194;-79
2022/11/16 03:49:57;;;;;;;0.45;0.20;;;16.80;99.90;;;;;;5024823;28;20616;-79
2022/11/16 03:52:27;;;;;;;0.32;0.32;;;16.90;99.90;;;;;;5024144;28;20197;-76
2022/11/16 03:54:58;;;;;;;0.30;0.28;;;16.90;99.90;;;;;;5031296;28;20308;-79
2022/11/16 03:57:29;;;;;;;1.30;0.30;;;16.80;99.90;;;;;;5032490;28;20585;-77
2022/11/16 04:00:00;;;;;;;0.20;0.20;;;16.80;99.90;;;;;;5032009;28;20194;-77
2022/11/16 04:02:32;;;;;;;0.32;0.30;;;16.90;99.90;;;;;;5031661;28;20198;-80
2022/11/16 04:25:08;;;;;;;1.50;0.40;;;17.20;99.90;;;;;;5024770;28;20221;-80
2022/11/16 04:37:47;;;;;;;0.38;0.38;;;17.50;99.90;;;;;;5027697;28;20692;-80
2022/11/16 04:39:12;;;;;;;0.40;0.30;;;17.90;99.90;;;;;;5028739;28;20731;-78
2022/11/16 04:47:15;;;;;;;0.70;0.30;;;17.80;99.90;;;;;;5024209;28;20198;-78
2022/11/16 04:49:45;;;;;;;0.75;0.32;;;17.70;99.90;;;;;;5024792;28;20209;-81
2022/11/16 04:52:18;;;;;;;0.20;0.20;;;17.80;99.90;;;;;;5031749;28;20198;-78
2022/11/16 04:54:49;;;;;;;3.22;0.75;;;17.80;99.90;;;;;;5030385;28;20202;-77
2022/11/16 04:57:19;;;;;;;3.08;0.80;;;17.70;99.90;;;;;;5027268;28;20198;-79
2022/11/16 04:59:50;;;;;;;6.07;0.60;;;17.30;99.90;;;;;;5022662;28;20234;-78
2022/11/16 05:02:21;;;;;;;3.70;0.70;;;16.90;99.90;;;;;;5029170;28;20217;-79
2022/11/16 05:04:52;;;;;;;4.63;0.68;;;16.60;99.90;;;;;;5029878;28;20574;-76
2022/11/16 05:07:24;;;;;;;2.17;0.60;;;16.20;99.90;;;;;;5027996;28;20653;-80
2022/11/16 05:09:55;;;;;;;1.83;0.60;;;16.00;99.90;;;;;;5026514;28;20191;-80
2022/11/16 05:12:27;;;;;;;2.15;0.57;;;15.90;99.90;;;;;;5022093;28;20192;-75
2022/11/16 05:14:58;;;;;;;4.72;0.52;;;15.80;99.90;;;;;;5024950;28;20203;-80
2022/11/16 05:17:30;;;;;;;2.83;0.52;;;15.70;99.90;;;;;;5034207;28;20190;-77
2022/11/16 05:22:55;;;;;;;1.05;0.43;;;15.40;99.90;;;;;;5033379;28;20328;-77
2022/11/16 05:25:26;;;;;;;0.98;0.60;;;15.30;99.90;;;;;;5031916;28;20217;-79
2022/11/16 05:27:57;;;;;;;2.65;0.30;;;15.00;99.90;;;;;;5035121;28;20190;-80
2022/11/16 05:30:28;;;;;;;2.28;0.60;;;14.90;99.90;;;;;;5033981;28;20441;-79
2022/11/16 05:32:59;;;;;;;3.63;0.50;;;14.80;99.90;;;;;;5034577;28;20657;-78
2022/11/16 05:35:30;;;;;;;2.42;0.40;;;14.80;99.90;;;;;;5031155;28;20204;-77
2022/11/16 05:38:02;;;;;;;3.33;0.70;;;14.70;99.90;;;;;;5026234;28;20249;-82
2022/11/16 05:40:34;;;;;;;1.17;0.50;;;14.70;99.90;;;;;;5034606;28;20190;-82
2022/11/16 05:43:05;;;;;;;25.00;15.55;;;14.70;99.90;;;;;;5029198;28;20187;-79
2022/11/16 05:45:35;;;;;;;5.20;1.00;;;14.70;99.90;;;;;;5032590;28;20902;-83
2022/11/16 05:48:06;;;;;;;4.10;2.15;;;14.80;99.90;;;;;;5034441;28;20202;-82
2022/11/16 05:50:37;;;;;;;2.50;0.40;;;14.80;99.90;;;;;;5035277;28;20230;-81
2022/11/16 05:53:10;;;;;;;3.03;0.57;;;14.80;99.90;;;;;;5034057;28;20197;-81
2022/11/16 05:55:40;;;;;;;3.97;0.60;;;14.80;99.90;;;;;;5034003;28;20190;-80
2022/11/16 05:58:11;;;;;;;2.15;0.50;;;14.90;99.90;;;;;;5033601;28;20535;-79
2022/11/16 06:00:42;;;;;;;1.55;0.40;;;14.80;99.90;;;;;;5034436;28;20660;-81
2022/11/16 06:03:12;;;;;;;2.08;0.43;;;14.80;99.90;;;;;;5034648;28;20190;-80
2022/11/16 06:05:43;;;;;;;2.40;0.50;;;14.80;99.90;;;;;;5024464;28;20588;-77
2022/11/16 06:08:16;;;;;;;3.17;0.40;;;14.90;99.90;;;;;;5032750;28;20198;-76
2022/11/16 06:10:47;;;;;;;2.47;0.50;;;14.90;99.90;;;;;;5033733;28;21764;-77
2022/11/16 06:13:18;;;;;;;1.63;0.50;;;14.90;99.90;;;;;;5028723;28;20209;-80
2022/11/16 06:15:48;;;;;;;1.48;0.63;;;15.00;99.90;;;;;;5038545;28;20198;-76
2022/11/16 06:18:19;;;;;;;4.28;0.52;;;14.90;99.90;;;;;;5034005;28;20186;-82
2022/11/16 06:20:51;;;;;;;0.65;0.40;;;14.90;99.90;;;;;;5034547;28;20261;-80
2022/11/16 06:23:23;;;;;;;0.35;0.30;;;15.00;99.90;;;;;;5030604;28;20194;-81
2022/11/16 06:25:56;;;;;;;0.95;0.40;;;15.00;99.90;;;;;;5034976;28;20217;-83
2022/11/16 06:28:27;;;;;;;1.75;0.50;;;15.10;99.90;;;;;;5033508;28;20646;-82
2022/11/16 06:30:58;;;;;;;1.27;0.60;;;15.10;99.90;;;;;;5026566;28;20655;-82
2022/11/16 06:33:29;;;;;;;2.20;0.55;;;15.20;99.90;;;;;;5030472;28;20194;-82
2022/11/16 06:36:00;;;;;;;3.10;0.57;;;15.30;99.90;;;;;;5026916;28;20189;-83
2022/11/16 06:38:33;;;;;;;1.23;0.40;;;15.50;99.90;;;;;;5032977;28;20592;-82
2022/11/16 06:41:04;;;;;;;2.50;0.40;;;15.70;99.90;;;;;;5026441;28;20193;-81
2022/11/16 06:43:35;;;;;;;1.85;0.32;;;15.80;99.90;;;;;;5031031;28;20290;-77
2022/11/16 06:46:05;;;;;;;1.05;0.38;;;15.80;99.90;;;;;;5029972;28;20218;-77
2022/11/16 06:48:36;;;;;;;1.52;0.50;;;15.90;99.90;;;;;;5033519;28;20202;-77
2022/11/16 06:51:07;;;;;;;1.35;0.40;;;15.80;99.90;;;;;;5023582;28;20186;-77
2022/11/16 06:53:40;;;;;;;2.13;0.60;;;15.80;99.90;;;;;;5032878;28;20201;-78
2022/11/16 06:56:13;;;;;;;2.03;0.40;;;15.70;99.90;;;;;;5033471;28;20182;-77
2022/11/16 06:58:43;;;;;;;1.45;0.40;;;15.80;99.90;;;;;;5033093;28;20634;-77
2022/11/16 07:01:15;;;;;;;1.25;0.30;;;15.90;99.90;;;;;;5033388;28;20213;-77
2022/11/16 07:03:45;;;;;;;0.90;0.40;;;16.00;99.90;;;;;;5032631;28;20270;-78
2022/11/16 07:06:17;;;;;;;0.75;0.38;;;16.10;99.90;;;;;;5032535;28;20228;-78
2022/11/16 07:08:49;;;;;;;3.30;0.55;;;16.20;99.90;;;;;;5029332;28;20195;-78
2022/11/16 07:11:21;;;;;;;1.65;0.25;;;16.20;99.90;;;;;;5028545;28;20194;-77
2022/11/16 07:13:51;;;;;;;1.17;0.40;;;16.20;99.90;;;;;;5032168;28;20240;-78
2022/11/16 07:16:22;;;;;;;5.10;0.50;;;16.10;99.90;;;;;;5032515;28;20190;-76
2022/11/16 07:18:55;;;;;;;1.30;0.60;;;16.00;99.90;;;;;;5032317;28;20187;-77
2022/11/16 07:21:26;;;;;;;2.20;0.50;;;15.90;99.90;;;;;;5029102;28;20302;-77
2022/11/16 07:23:59;;;;;;;65.70;41.47;;;15.90;99.90;;;;;;5031497;28;20212;-78
2022/11/16 07:26:30;;;;;;;4.53;1.27;;;15.90;99.90;;;;;;5026924;28;20256;-77
2022/11/16 07:29:01;;;;;;;1.30;0.50;;;15.90;99.90;;;;;;5027956;28;20213;-75
2022/11/16 07:31:32;;;;;;;2.72;0.77;;;15.80;99.90;;;;;;5031473;28;20202;-80
2022/11/16 07:34:03;;;;;;;2.00;0.60;;;15.80;99.90;;;;;;5048840;22;20198;-71
2022/11/16 07:36:34;;;;;;;1.83;0.50;;;15.80;99.90;;;;;;5067110;28;20551;-72
2022/11/16 07:39:09;;;;;;;1.45;0.47;;;15.80;99.90;;;;;;5071005;28;20237;-71
2022/11/16 07:41:41;;;;;;;0.80;0.52;;;15.80;99.90;;;;;;5072057;28;20195;-71
2022/11/16 07:44:12;;;;;;;1.27;0.50;;;15.80;99.90;;;;;;5066360;28;20185;-72
2022/11/16 07:46:42;;;;;;;0.50;0.20;;;15.70;99.90;;;;;;5070322;28;20324;-71
2022/11/16 07:49:16;;;;;;;1.90;0.68;;;15.60;99.90;;;;;;5070673;28;20181;-72
2022/11/16 07:51:57;;;;;;;0.52;0.50;;;15.50;99.90;;;;;;5066083;28;20200;-78
2022/11/16 07:54:42;;;;;;;1.10;0.50;;;15.40;99.90;;;;;;5069609;28;20282;-75
2022/11/16 07:57:15;;;;;;;2.28;0.50;;;15.30;99.90;;;;;;5066412;28;20205;-71
2022/11/16 07:59:47;;;;;;;2.17;0.40;;;15.30;99.90;;;;;;5068258;28;20188;-71
2022/11/16 08:02:18;;;;;;;0.75;0.45;;;15.20;99.90;;;;;;5062583;28;20181;-71
2022/11/16 08:04:49;;;;;;;1.17;0.60;;;15.10;99.90;;;;;;5071362;28;20225;-72
2022/11/16 08:07:20;;;;;;;3.40;0.50;;;15.00;99.90;;;;;;5063823;28;20214;-71
2022/11/16 08:09:53;;;;;;;0.82;0.45;;;15.00;99.90;;;;;;5062804;28;20280;-71
2022/11/16 08:12:23;;;;;;;1.40;0.60;;;15.10;99.90;;;;;;5071566;28;20284;-71
2022/11/16 08:14:54;;;;;;;1.88;0.73;;;15.10;99.90;;;;;;5068163;28;20189;-71
2022/11/16 08:17:25;;;;;;;1.42;0.70;;;15.10;99.90;;;;;;5071752;28;20271;-71
2022/11/16 08:19:56;;;;;;;2.30;0.57;;;15.10;99.90;;;;;;5068705;28;20272;-71
2022/11/16 08:22:27;;;;;;;3.25;0.40;;;15.10;99.90;;;;;;5072285;28;20193;-72
2022/11/16 08:24:59;;;;;;;1.95;0.32;;;15.10;99.90;;;;;;5071667;28;20203;-71
2022/11/16 08:27:31;;;;;;;1.38;0.40;;;15.10;99.90;;;;;;5064025;28;20223;-72
2022/11/16 08:30:03;;;;;;;0.90;0.40;;;15.10;99.90;;;;;;5068300;28;20200;-73
2022/11/16 08:32:36;;;;;;;1.48;0.38;;;15.10;99.90;;;;;;5064691;28;20200;-83
2022/11/16 08:35:08;;;;;;;2.60;0.50;;;15.10;99.90;;;;;;5053970;28;20312;-72
2022/11/16 08:37:39;;;;;;;0.38;0.38;;;15.00;99.90;;;;;;5059541;28;20197;-71
2022/11/16 08:40:13;;;;;;;0.30;0.30;;;14.90;99.90;;;;;;5050915;28;20194;-72
2022/11/16 08:42:44;;;;;;;0.30;0.30;;;14.90;99.90;;;;;;5055548;28;20203;-72
2022/11/16 08:45:16;;;;;;;0.73;0.30;;;14.90;99.90;;;;;;5052684;28;20189;-72
2022/11/16 08:47:47;;;;;;;0.73;0.32;;;14.80;99.90;;;;;;5058225;28;20212;-73
2022/11/16 08:50:18;;;;;;;1.48;0.38;;;14.80;99.90;;;;;;5043810;28;20194;-72
2022/11/16 08:52:49;;;;;;;0.32;0.32;;;14.70;99.90;;;;;;5044393;28;20340;-72
2022/11/16 08:55:22;;;;;;;1.08;0.43;;;14.70;99.90;;;;;;5055860;28;20193;-72
2022/11/16 08:57:53;;;;;;;0.52;0.30;;;14.70;99.90;;;;;;5058093;28;20341;-72
2022/11/16 09:00:23;;;;;;;0.70;0.30;;;14.70;99.90;;;;;;5051663;28;20323;-73
2022/11/16 09:02:54;;;;;;;1.48;0.30;;;14.70;99.90;;;;;;5060555;28;20193;-72
2022/11/16 09:05:25;;;;;;;0.40;0.30;;;14.80;99.90;;;;;;5063315;28;20200;-73
2022/11/16 09:07:56;;;;;;;0.63;0.30;;;14.70;99.90;;;;;;5054830;28;20643;-73
2022/11/16 09:10:29;;;;;;;0.50;0.40;;;14.70;99.90;;;;;;5073215;28;20247;-72
2022/11/16 09:13:00;;;;;;;0.80;0.35;;;14.70;99.90;;;;;;5054365;28;20197;-72
2022/11/16 09:15:30;;;;;;;0.55;0.40;;;14.70;99.90;;;;;;5073763;28;20250;-73
2022/11/16 09:18:01;;;;;;;1.30;0.45;;;14.60;99.90;;;;;;5056163;28;20300;-72
2022/11/16 09:20:32;;;;;;;3.03;0.50;;;14.60;99.90;;;;;;5055515;28;20247;-72
2022/11/16 09:23:03;;;;;;;0.52;0.47;;;14.60;99.90;;;;;;5049032;28;20233;-72
2022/11/16 09:25:36;;;;;;;0.85;0.40;;;14.60;99.90;;;;;;5056824;28;20276;-74
2022/11/16 09:28:07;;;;;;;0.90;0.50;;;14.60;99.90;;;;;;5055683;28;20300;-72
2022/11/16 09:30:38;;;;;;;1.73;0.50;;;14.60;99.90;;;;;;5054357;28;20201;-72
2022/11/16 09:33:09;;;;;;;0.55;0.40;;;14.60;99.90;;;;;;5056756;28;20194;-73
2022/11/16 09:35:40;;;;;;;0.47;0.43;;;14.60;99.90;;;;;;5053924;28;20315;-73
2022/11/16 09:38:12;;;;;;;0.77;0.32;;;14.60;99.90;;;;;;5059497;28;20204;-72
2022/11/16 09:40:48;;;;;;;0.65;0.50;;;14.50;99.90;;;;;;5055416;28;20295;-74
2022/11/16 09:43:28;;;;;;;1.88;0.60;;;14.50;99.90;;;;;;5049784;28;20281;-75
2022/11/16 09:46:09;;;;;;;0.85;0.38;;;14.40;99.90;;;;;;5047400;28;20237;-77
2022/11/16 09:48:44;;;;;;;1.00;0.30;;;14.40;99.90;;;;;;5051055;28;20205;-73
2022/11/16 09:51:17;;;;;;;0.80;0.40;;;14.30;99.90;;;;;;5052183;28;20675;-74
2022/11/16 09:53:52;;;;;;;1.08;0.40;;;14.30;99.90;;;;;;5054799;28;20202;-74
2022/11/16 09:56:27;;;;;;;1.83;0.38;;;14.30;99.90;;;;;;5058505;28;20258;-73
2022/11/16 09:59:03;;;;;;;0.93;0.50;;;14.30;99.90;;;;;;5049907;28;20225;-73
2022/11/16 10:01:39;;;;;;;3.05;0.68;;;14.30;99.90;;;;;;5050445;28;20736;-73
2022/11/16 10:04:14;;;;;;;0.57;0.40;;;14.30;99.90;;;;;;5044407;28;20221;-72
2022/11/16 10:06:51;;;;;;;0.70;0.40;;;14.20;99.90;;;;;;5054613;28;20296;-72
2022/11/16 10:09:24;;;;;;;2.40;0.52;;;14.20;99.90;;;;;;5061667;28;20560;-72
2022/11/16 10:12:24;;;;;;;0.80;0.40;;;14.20;99.90;;;;;;5060772;28;20289;-83
2022/11/16 10:15:29;;;;;;;0.80;0.35;;;14.20;99.90;;;;;;5061465;28;20225;-72
2022/11/16 10:18:24;;;;;;;1.25;0.40;;;14.10;99.90;;;;;;5052700;28;20201;-73
2022/11/16 10:21:13;;;;;;;1.33;0.60;;;14.10;99.90;;;;;;5058363;28;20287;-83
2022/11/16 10:23:58;;;;;;;1.65;0.80;;;14.10;99.90;;;;;;5074225;28;20238;-83
2022/11/16 10:26:33;;;;;;;2.55;0.57;;;14.00;99.90;;;;;;5052458;28;20201;-85
2022/11/16 10:29:18;;;;;;;1.10;0.50;;;14.00;99.90;;;;;;5059839;28;20204;-73
2022/11/16 10:32:14;;;;;;;2.08;0.68;;;14.00;99.90;;;;;;5054678;28;20192;-72
2022/11/16 10:34:50;;;;;;;0.40;0.40;;;14.00;99.90;;;;;;5049968;28;20755;-72
2022/11/16 10:37:22;;;;;;;1.65;0.57;;;14.00;99.90;;;;;;5060224;28;20224;-76
2022/11/16 10:39:54;;;;;;;1.35;0.50;;;14.00;99.90;;;;;;5072867;28;20284;-73
2022/11/16 10:42:32;;;;;;;1.52;0.65;;;14.00;99.90;;;;;;5061352;28;20193;-73
2022/11/16 10:45:14;;;;;;;3.03;0.80;;;13.90;99.90;;;;;;5055056;28;20206;-73
2022/11/16 10:47:59;;;;;;;2.03;0.70;;;13.90;99.90;;;;;;5073418;28;20216;-71
2022/11/16 10:50:39;;;;;;;5.90;0.80;;;13.90;99.90;;;;;;5049557;28;20223;-72
2022/11/16 10:53:16;;;;;;;2.40;0.70;;;13.90;99.90;;;;;;5059461;28;20786;-74
2022/11/16 10:55:56;;;;;;;1.48;0.60;;;13.90;99.90;;;;;;5054328;28;20239;-72
2022/11/16 10:58:27;;;;;;;1.17;0.60;;;13.90;99.90;;;;;;5047170;28;20286;-72
2022/11/16 11:01:03;;;;;;;3.00;0.80;;;13.80;99.90;;;;;;5054177;28;20216;-72
2022/11/16 11:03:35;;;;;;;1.20;0.70;;;13.70;99.90;;;;;;5061628;28;20641;-71
2022/11/16 11:06:07;;;;;;;1.55;0.77;;;13.70;99.90;;;;;;5053884;28;20212;-74
2022/11/16 11:08:39;;;;;;;2.88;0.80;;;13.70;99.90;;;;;;5050065;28;20645;-75
2022/11/16 11:14:11;;;;;;;1.65;0.70;;;13.70;99.90;;;;;;5028264;28;20556;-79
2022/11/16 11:16:54;;;;;;;1.73;0.60;;;13.70;99.90;;;;;;5053405;28;20545;-74
2022/11/16 11:19:28;;;;;;;1.10;0.65;;;13.70;99.90;;;;;;5055845;28;20631;-73
2022/11/16 11:22:00;;;;;;;1.90;0.65;;;13.70;99.90;;;;;;5060968;28;20224;-73
2022/11/16 11:24:34;;;;;;;2.00;0.80;;;13.70;99.90;;;;;;5048794;28;20193;-72
2022/11/16 11:27:05;;;;;;;2.75;0.85;;;13.70;99.90;;;;;;5058944;28;20271;-72
2022/11/16 11:29:38;;;;;;;3.20;1.00;;;13.60;99.90;;;;;;5060451;28;20232;-77
2022/11/16 11:32:17;;;;;;;1.52;0.80;;;13.60;99.90;;;;;;5060604;28;20208;-73
2022/11/16 11:34:51;;;;;;;4.32;0.88;;;13.60;99.90;;;;;;5051855;28;20240;-76
2022/11/16 11:37:23;;;;;;;1.38;0.70;;;13.60;99.90;;;;;;5052114;28;20323;-72
2022/11/16 11:40:09;;;;;;;4.82;0.80;;;13.70;99.90;;;;;;5047376;28;20193;-74
2022/11/16 11:42:43;;;;;;;2.20;0.80;;;13.70;99.90;;;;;;5055668;28;20197;-79
2022/11/16 11:45:19;;;;;;;2.25;0.80;;;13.70;99.90;;;;;;5052733;28;20687;-73
2022/11/16 11:47:57;;;;;;;1.63;0.90;;;13.80;99.90;;;;;;5051814;28;20643;-75
2022/11/16 11:50:37;;;;;;;2.38;1.23;;;13.70;99.90;;;;;;5068819;28;20286;-73
2022/11/16 11:53:15;;;;;;;2.17;0.90;;;13.60;99.90;;;;;;5056685;28;20755;-75
2022/11/16 11:55:49;;;;;;;0.98;0.85;;;13.60;99.90;;;;;;5040881;28;20194;-73
2022/11/16 11:58:21;;;;;;;0.98;0.70;;;13.60;99.90;;;;;;5049806;28;20285;-77
2022/11/16 12:01:03;;;;;;;2.08;0.73;;;13.60;99.90;;;;;;5057580;28;20236;-72
2022/11/16 12:04:01;;;;;;;2.33;0.73;;;13.50;99.90;;;;;;5051438;28;20205;-72
2022/11/16 12:06:37;;;;;;;0.93;0.60;;;13.50;99.90;;;;;;5049698;28;20217;-71
2022/11/16 12:09:31;;;;;;;0.98;0.70;;;13.40;99.90;;;;;;5052746;28;20295;-71
2022/11/16 12:12:15;;;;;;;1.42;0.60;;;13.40;99.90;;;;;;5060464;28;20193;-71
2022/11/16 12:15:21;;;;;;;1.00;0.68;;;13.40;99.90;;;;;;5056336;28;20251;-71
2022/11/16 12:17:59;;;;;;;1.58;0.88;;;13.30;99.90;;;;;;5062421;28;20697;-71
2022/11/16 12:20:43;;;;;;;1.63;0.70;;;13.20;99.90;;;;;;5047627;28;20203;-71
2022/11/16 12:23:54;;;;;;;0.57;0.57;;;13.10;99.90;;;;;;5047635;28;20284;-79
2022/11/16 12:26:37;;;;;;;1.65;0.80;;;13.10;99.90;;;;;;5016503;28;20283;-86
2022/11/16 12:29:22;;;;;;;1.20;0.70;;;13.00;99.90;;;;;;5053541;28;20234;-86
2022/11/16 12:32:24;;;;;;;1.83;0.85;;;13.00;99.90;;;;;;5055287;28;20288;-75
2022/11/16 12:35:18;;;;;;;1.83;0.82;;;12.90;99.90;;;;;;5040498;28;20242;-87
2022/11/16 12:37:58;;;;;;;0.85;0.70;;;12.90;99.90;;;;;;5051380;28;20289;-84
2022/11/16 12:40:43;;;;;;;2.30;1.00;;;12.90;99.90;;;;;;5048338;28;20205;-86
2022/11/16 12:43:22;;;;;;;1.58;1.00;;;12.80;99.90;;;;;;5056400;28;20354;-83
2022/11/16 12:46:12;;;;;;;1.17;0.73;;;12.80;99.90;;;;;;5057288;28;20295;-84
2022/11/16 12:49:18;;;;;;;1.50;0.70;;;12.80;99.90;;;;;;5059783;28;20275;-84
2022/11/16 12:52:03;;;;;;;1.17;0.82;;;12.80;99.90;;;;;;5043702;28;20192;-86
2022/11/16 12:55:02;;;;;;;1.50;0.77;;;12.70;99.90;;;;;;5052004;28;20212;-72
2022/11/16 12:57:41;;;;;;;1.45;0.68;;;12.70;99.90;;;;;;5048450;28;20209;-71
2022/11/16 13:00:14;;;;;;;2.40;0.80;;;12.70;99.90;;;;;;5064692;28;20621;-75
2022/11/16 13:03:03;;;;;;;2.05;0.90;;;12.70;99.90;;;;;;5055641;28;20712;-71
2022/11/16 13:05:53;;;;;;;2.47;0.90;;;12.70;99.90;;;;;;5053741;28;20201;-72
2022/11/16 13:08:47;;;;;;;3.05;0.73;;;12.70;99.90;;;;;;5053641;28;20263;-72
2022/11/16 13:11:24;;;;;;;1.80;1.00;;;12.70;99.90;;;;;;5046500;28;20251;-71
2022/11/16 13:14:01;;;;;;;0.85;0.80;;;12.70;99.90;;;;;;5063638;28;20236;-87
2022/11/16 13:16:32;;;;;;;1.13;0.85;;;12.70;99.90;;;;;;5055251;28;20198;-84
2022/11/16 13:19:06;;;;;;;1.40;0.80;;;12.70;99.90;;;;;;5054704;28;20251;-85
2022/11/16 13:21:51;;;;;;;2.30;0.80;;;12.60;99.90;;;;;;5053894;28;21431;-83
2022/11/16 13:24:34;;;;;;;0.90;0.73;;;12.60;99.90;;;;;;5051052;28;20569;-84
2022/11/16 13:27:18;;;;;;;0.82;0.70;;;12.60;99.90;;;;;;5052438;28;20259;-83
2022/11/16 13:29:59;;;;;;;1.65;0.70;;;12.60;99.90;;;;;;5047053;28;20208;-85
2022/11/16 13:32:43;;;;;;;0.77;0.60;;;12.60;99.90;;;;;;5055314;28;20222;-86
2022/11/16 13:35:17;;;;;;;0.65;0.45;;;12.60;99.90;;;;;;5056650;28;20344;-81
2022/11/16 13:37:50;;;;;;;0.77;0.60;;;12.60;99.90;;;;;;5068354;23;20632;-80
2022/11/16 13:40:30;;;;;;;0.68;0.50;;;12.50;99.90;;;;;;5049005;28;20240;-78
2022/11/16 13:43:09;;;;;;;0.95;0.50;;;12.50;99.90;;;;;;5054296;28;20659;-77
2022/11/16 13:45:46;;;;;;;1.17;0.50;;;12.50;99.90;;;;;;5053580;28;20236;-77
2022/11/16 13:48:23;;;;;;;0.57;0.47;;;12.50;99.90;;;;;;5053191;28;20242;-78
2022/11/16 13:50:56;;;;;;;1.25;0.50;;;12.50;99.90;;;;;;5052244;28;20194;-77
2022/11/16 13:53:31;;;;;;;0.50;0.50;;;12.50;99.90;;;;;;5052371;28;20696;-78
2022/11/16 13:56:06;;;;;;;0.90;0.50;;;12.50;99.90;;;;;;5047581;28;20193;-77
2022/11/16 13:58:39;;;;;;;0.60;0.60;;;12.40;99.90;;;;;;5051639;28;20209;-78
2022/11/16 14:01:15;;;;;;;0.60;0.60;;;12.40;99.90;;;;;;5054497;28;20265;-82
2022/11/16 14:03:47;;;;;;;1.15;0.60;;;12.40;99.90;;;;;;5053015;28;20199;-78
2022/11/16 14:06:53;;;;;;;1.02;0.60;;;12.40;99.90;;;;;;5052986;28;20198;-78
2022/11/16 14:09:57;;;;;;;1.00;0.63;;;12.40;99.90;;;;;;5050809;28;20315;-78
2022/11/16 14:12:53;;;;;;;2.10;0.70;;;12.40;99.90;;;;;;4991464;28;20199;-78
2022/11/16 14:15:25;;;;;;;0.90;0.60;;;12.30;99.90;;;;;;4963561;28;20200;-77
2022/11/16 14:18:20;;;;;;;1.05;0.70;;;12.30;99.90;;;;;;5033721;28;20288;-77